Time;durP1;ratioP1;P1;durP2;ratioP2;P2;SDS_P1;SDS_P2;PMS_P1;PMS_P2;Temp;Humidity;BMP_temperature;BMP_pressure;BME280_temperature;BME280_humidity;BME280_pressure;Samples;Min_cycle;Max_cycle;Signal;HPM_P1;HPM_P2
2021/07/28 00:02:43;;;;;;;49.63;44.90;;;;;;;18.18;100.00;100666.70;1972181;72;30980;-72
2021/07/28 00:08:09;;;;;;;49.60;45.37;;;;;;;18.10;100.00;100662.55;1972220;72;30957;-71
2021/07/28 00:13:34;;;;;;;49.67;45.23;;;;;;;18.21;100.00;100663.81;1972238;72;33394;-72
2021/07/28 00:19:05;;;;;;;49.27;44.80;;;;;;;18.19;100.00;100664.15;1971956;73;31128;-71
2021/07/28 00:24:31;;;;;;;49.30;45.20;;;;;;;18.26;100.00;100667.84;1972244;72;30979;-71
2021/07/28 00:29:56;;;;;;;50.40;46.10;;;;;;;18.24;100.00;100666.52;1972191;72;31081;-73
2021/07/28 00:35:20;;;;;;;51.23;47.13;;;;;;;18.27;100.00;100656.81;1971990;72;30965;-69
2021/07/28 00:40:47;;;;;;;49.20;45.00;;;;;;;18.31;100.00;100662.02;1972004;72;30946;-71
2021/07/28 00:46:12;;;;;;;49.77;45.73;;;;;;;18.41;100.00;100658.78;1972051;73;30962;-70
2021/07/28 00:51:36;;;;;;;47.03;43.33;;;;;;;18.48;100.00;100646.39;1972158;72;31050;-73
2021/07/28 00:57:01;;;;;;;46.53;42.53;;;;;;;18.52;100.00;100637.57;1972054;72;30972;-71
2021/07/28 01:02:25;;;;;;;48.90;44.90;;;;;;;18.55;100.00;100638.86;1972082;72;31047;-71
2021/07/28 01:07:51;;;;;;;47.33;43.23;;;;;;;18.46;100.00;100633.27;1972036;72;31018;-73
2021/07/28 01:13:26;;;;;;;48.63;44.43;;;;;;;18.55;100.00;100636.05;1972186;73;30974;-71
2021/07/28 01:18:47;;;;;;;48.03;44.00;;;;;;;18.57;100.00;100635.10;1972215;72;31545;-73
2021/07/28 01:24:13;;;;;;;49.67;45.53;;;;;;;18.54;100.00;100630.17;1972214;72;31029;-73
2021/07/28 01:29:57;;;;;;;49.50;45.37;;;;;;;18.59;100.00;100628.56;1947991;74;31059;-70
2021/07/28 01:35:25;;;;;;;50.67;46.37;;;;;;;18.55;100.00;100644.48;1971982;73;31014;-71
2021/07/28 01:40:49;;;;;;;50.10;46.10;;;;;;;18.64;100.00;100645.23;1972284;72;33377;-73
2021/07/28 01:46:14;;;;;;;51.90;47.50;;;;;;;18.69;100.00;100647.84;1972095;72;31033;-71
2021/07/28 01:51:45;;;;;;;50.90;46.80;;;;;;;18.67;100.00;100643.72;1972168;73;31447;-70
2021/07/28 01:57:14;;;;;;;51.83;47.37;;;;;;;18.69;100.00;100649.25;1972033;72;31047;-72
2021/07/28 02:03:03;;;;;;;50.90;46.80;;;;;;;18.69;100.00;100642.22;1947899;74;31139;-73
2021/07/28 02:08:27;;;;;;;49.10;45.10;;;;;;;18.68;100.00;100648.18;1972039;72;31039;-71
2021/07/28 02:13:52;;;;;;;51.00;46.90;;;;;;;18.68;100.00;100654.63;1972365;72;31509;-73
2021/07/28 02:19:36;;;;;;;51.17;46.80;;;;;;;18.61;100.00;100644.53;1933130;73;31118;-72
2021/07/28 02:25:01;;;;;;;51.43;47.13;;;;;;;18.65;100.00;100646.28;1971914;73;31101;-73
2021/07/28 02:30:25;;;;;;;50.50;46.43;;;;;;;18.60;100.00;100646.52;1971891;73;31052;-70
2021/07/28 02:36:09;;;;;;;47.87;44.07;;;;;;;18.58;100.00;100648.01;1947858;74;31110;-69
2021/07/28 02:41:33;;;;;;;48.93;44.90;;;;;;;18.68;100.00;100639.73;1972068;72;30959;-73
2021/07/28 02:46:57;;;;;;;49.30;45.17;;;;;;;18.66;100.00;100633.04;1972178;72;30977;-73
2021/07/28 02:52:22;;;;;;;47.80;43.80;;;;;;;18.57;100.00;100641.55;1972109;72;31036;-70
2021/07/28 02:57:47;;;;;;;48.47;44.37;;;;;;;18.56;100.00;100642.75;1971925;72;30989;-73
2021/07/28 03:03:12;;;;;;;50.03;46.00;;;;;;;18.52;100.00;100640.94;1972141;73;31033;-70
2021/07/28 03:08:37;;;;;;;50.60;46.70;;;;;;;18.51;100.00;100639.27;1972069;72;30971;-70
2021/07/28 03:14:02;;;;;;;48.60;44.80;;;;;;;18.57;100.00;100644.95;1971917;72;31414;-70
2021/07/28 03:19:27;;;;;;;49.10;45.03;;;;;;;18.51;100.00;100643.50;1971922;73;31038;-69
2021/07/28 03:24:51;;;;;;;49.00;45.23;;;;;;;18.52;100.00;100640.94;1971926;73;31041;-71
2021/07/28 03:30:16;;;;;;;46.20;42.70;;;;;;;18.51;100.00;100639.27;1972138;72;31084;-71
2021/07/28 03:35:40;;;;;;;49.20;45.40;;;;;;;18.48;100.00;100644.19;1972176;72;30999;-70
2021/07/28 03:41:04;;;;;;;46.77;42.70;;;;;;;18.47;100.00;100639.14;1971926;73;31059;-72
2021/07/28 03:49:15;;;;;;;48.40;44.50;;;;;;;18.46;100.00;100640.30;1941889;74;31318;-71
2021/07/28 03:51:45;;;;;;;47.50;43.50;;;;;;;18.50;100.00;100647.47;1849336;77;24149;-71
2021/07/28 03:54:15;;;;;;;48.00;43.93;;;;;;;18.39;100.00;100643.43;1849351;77;24136;-71
2021/07/28 03:56:45;;;;;;;47.17;43.37;;;;;;;18.32;100.00;100641.73;1849440;77;24148;-70
2021/07/28 03:59:15;;;;;;;47.17;43.17;;;;;;;18.31;100.00;100635.89;1849267;77;26820;-72
2021/07/28 04:01:45;;;;;;;46.97;43.17;;;;;;;18.36;100.00;100636.48;1849072;75;937021;-72
2021/07/28 04:04:16;;;;;;;48.50;44.50;;;;;;;18.35;100.00;100641.06;1819530;79;27418;-71
2021/07/28 04:06:46;;;;;;;48.60;44.50;;;;;;;18.31;100.00;100642.92;1819587;79;24138;-71
2021/07/28 04:09:16;;;;;;;47.90;44.03;;;;;;;18.29;100.00;100638.20;1819649;79;24216;-72
2021/07/28 04:11:46;;;;;;;46.60;42.77;;;;;;;18.28;100.00;100642.17;1819580;79;24133;-70
2021/07/28 04:14:16;;;;;;;48.20;44.03;;;;;;;18.28;100.00;100637.37;1819566;79;24241;-73
2021/07/28 04:16:46;;;;;;;46.67;42.87;;;;;;;18.29;100.00;100639.61;1819528;79;24208;-73
2021/07/28 04:19:16;;;;;;;47.10;43.27;;;;;;;18.28;100.00;100642.17;1819557;79;24223;-72
2021/07/28 04:24:40;;;;;;;49.27;45.47;;;;;;;18.32;100.00;100638.92;1971961;72;31062;-72
2021/07/28 04:30:06;;;;;;;51.20;47.03;;;;;;;18.22;100.00;100637.94;1972295;72;31441;-70
2021/07/28 04:35:32;;;;;;;48.67;44.30;;;;;;;18.25;100.00;100644.27;1972171;73;31510;-73
2021/07/28 04:40:57;;;;;;;49.53;45.37;;;;;;;18.17;100.00;100647.39;1972144;73;33383;-71
2021/07/28 04:46:21;;;;;;;49.53;45.37;;;;;;;18.22;100.00;100649.19;1972177;72;33385;-70
2021/07/28 04:51:47;;;;;;;51.53;47.43;;;;;;;18.17;100.00;100653.84;1971909;72;31019;-70
2021/07/28 04:57:12;;;;;;;54.20;49.90;;;;;;;18.14;100.00;100661.53;1972127;73;31547;-70
2021/07/28 05:02:37;;;;;;;54.77;50.20;;;;;;;18.16;100.00;100658.39;1972155;72;31504;-71
2021/07/28 05:08:09;;;;;;;52.00;47.57;;;;;;;18.14;100.00;100662.94;1971992;72;30962;-72
2021/07/28 05:13:33;;;;;;;52.60;48.37;;;;;;;18.32;100.00;100661.41;1971970;72;30945;-73
2021/07/28 05:18:58;;;;;;;53.07;48.77;;;;;;;18.20;100.00;100661.59;1971917;73;31087;-71
2021/07/28 05:24:24;;;;;;;53.70;49.10;;;;;;;18.21;100.00;100658.20;1972124;72;31501;-74
2021/07/28 05:29:48;;;;;;;53.57;48.90;;;;;;;18.25;100.00;100661.97;1971935;72;31004;-70
2021/07/28 05:35:17;;;;;;;54.67;49.87;;;;;;;18.18;100.00;100675.75;1971966;73;30961;-70
2021/07/28 05:40:42;;;;;;;54.40;49.77;;;;;;;18.27;100.00;100677.11;1971970;73;30957;-74
2021/07/28 05:46:07;;;;;;;54.27;49.50;;;;;;;18.27;100.00;100672.28;1972126;72;31419;-74
2021/07/28 05:51:31;;;;;;;54.47;49.77;;;;;;;18.34;100.00;100681.59;1972115;72;31516;-69
2021/07/28 05:56:55;;;;;;;54.53;50.07;;;;;;;18.13;100.00;100680.99;1971939;73;31013;-70
2021/07/28 06:02:20;;;;;;;53.37;48.77;;;;;;;18.11;100.00;100690.91;1972196;72;30951;-75
2021/07/28 06:07:44;;;;;;;54.30;49.67;;;;;;;18.15;100.00;100680.63;1971939;73;30956;-73
2021/07/28 06:13:10;;;;;;;55.83;51.23;;;;;;;18.10;100.00;100685.87;1972101;73;33404;-70
2021/07/28 06:18:35;;;;;;;55.40;50.80;;;;;;;18.05;100.00;100688.90;1971996;72;31046;-75
2021/07/28 06:24:00;;;;;;;53.30;48.80;;;;;;;18.11;100.00;100697.36;1972151;72;30958;-71
2021/07/28 06:29:27;;;;;;;51.97;47.60;;;;;;;18.20;100.00;100700.12;1971985;73;31029;-75
2021/07/28 06:34:52;;;;;;;52.63;48.03;;;;;;;18.20;100.00;100705.16;1971945;72;30955;-71
2021/07/28 06:40:17;;;;;;;49.47;45.37;;;;;;;18.27;100.00;100693.36;1971985;73;31037;-75
2021/07/28 06:45:42;;;;;;;49.37;45.20;;;;;;;18.24;100.00;100697.45;1971999;73;30968;-71
2021/07/28 06:51:06;;;;;;;50.03;45.83;;;;;;;18.29;100.00;100705.11;1971880;73;30966;-75
2021/07/28 06:56:30;;;;;;;48.73;44.83;;;;;;;18.40;100.00;100712.58;1971924;73;30958;-76
2021/07/28 07:01:57;;;;;;;49.03;45.23;;;;;;;18.43;100.00;100713.30;1971957;73;30961;-71
2021/07/28 07:07:22;;;;;;;48.57;44.67;;;;;;;18.64;100.00;100713.59;1972276;72;31418;-70
2021/07/28 07:12:47;;;;;;;48.13;44.27;;;;;;;18.56;100.00;100712.25;1972297;72;31517;-70
2021/07/28 07:18:11;;;;;;;46.87;43.10;;;;;;;18.85;100.00;100713.58;1972150;73;33429;-75
2021/07/28 07:23:36;;;;;;;44.53;41.07;;;;;;;19.14;100.00;100708.42;1972186;72;30974;-75
2021/07/28 07:29:00;;;;;;;44.03;40.70;;;;;;;19.26;100.00;100716.08;1971988;72;31036;-72
2021/07/28 07:34:25;;;;;;;42.93;39.63;;;;;;;19.51;100.00;100719.27;1971906;72;31030;-72
2021/07/28 07:39:49;;;;;;;42.20;39.10;;;;;;;20.28;100.00;100704.77;1971990;72;31024;-76
2021/07/28 07:45:14;;;;;;;41.33;38.17;;;;;;;19.45;100.00;100704.57;1971995;73;30971;-76
2021/07/28 07:50:38;;;;;;;40.73;37.53;;;;;;;19.55;100.00;100706.92;1972205;73;31464;-70
2021/07/28 07:56:09;;;;;;;39.40;36.57;;;;;;;19.62;100.00;100712.59;1972443;72;31602;-72
2021/07/28 08:01:34;;;;;;;38.27;35.30;;;;;;;19.66;100.00;100712.95;1972138;72;31027;-74
2021/07/28 08:06:58;;;;;;;39.43;36.43;;;;;;;19.53;100.00;100717.73;1972255;73;31062;-76
2021/07/28 08:12:23;;;;;;;41.90;38.70;;;;;;;19.43;100.00;100715.94;1971923;73;30954;-75
2021/07/28 08:17:53;;;;;;;41.53;38.50;;;;;;;19.49;100.00;100710.33;1972139;73;31444;-77
2021/07/28 08:23:24;;;;;;;38.43;35.73;;;;;;;20.01;100.00;100704.88;1971924;72;30941;-74
2021/07/28 08:28:49;;;;;;;35.90;33.20;;;;;;;20.04;100.00;100694.87;1971972;72;30933;-76
2021/07/28 08:34:13;;;;;;;35.77;33.20;;;;;;;20.30;100.00;100689.73;1972283;72;31489;-70
2021/07/28 08:39:38;;;;;;;32.53;30.53;;;;;;;20.52;100.00;100698.28;1971887;73;31031;-75
2021/07/28 08:45:10;;;;;;;34.07;31.87;;;;;;;20.57;100.00;100690.40;1972071;72;30940;-75
2021/07/28 08:50:35;;;;;;;33.17;31.17;;;;;;;20.60;100.00;100688.27;1972152;72;31001;-68
2021/07/28 08:56:08;;;;;;;34.30;32.10;;;;;;;20.52;100.00;100690.64;1971922;72;30987;-75
2021/07/28 09:01:32;;;;;;;34.60;32.10;;;;;;;20.33;100.00;100694.07;1972283;72;31529;-75
2021/07/28 09:06:57;;;;;;;33.63;31.43;;;;;;;20.43;100.00;100699.83;1972211;73;30930;-71
2021/07/28 09:12:24;;;;;;;35.07;32.87;;;;;;;20.62;100.00;100693.56;1971976;72;30929;-71
2021/07/28 09:17:50;;;;;;;33.13;31.03;;;;;;;20.56;100.00;100696.39;1972172;72;31493;-77
2021/07/28 09:23:41;;;;;;;34.47;32.17;;;;;;;20.22;100.00;100701.35;1947599;74;31023;-76
2021/07/28 09:29:27;;;;;;;34.10;32.10;;;;;;;20.18;100.00;100693.95;1971929;73;30919;-71
2021/07/28 09:34:56;;;;;;;32.63;30.73;;;;;;;20.64;100.00;100692.60;1971992;72;31120;-75
2021/07/28 09:40:42;;;;;;;31.83;30.13;;;;;;;20.86;100.00;100693.48;1947708;74;31020;-72
2021/07/28 09:46:34;;;;;;;31.20;29.40;;;;;;;21.04;100.00;100688.36;1972137;73;31039;-74
2021/07/28 09:58:36;;;;;;;45.70;42.13;;;;;;;20.16;100.00;100723.91;1972266;72;31539;-74
2021/07/28 10:04:16;;;;;;;46.87;43.33;;;;;;;19.25;100.00;100716.70;1972016;72;31042;-69
2021/07/28 10:10:00;;;;;;;46.93;42.83;;;;;;;18.82;100.00;100717.09;1972093;72;31109;-75
2021/07/28 10:15:52;;;;;;;43.10;39.37;;;;;;;19.22;100.00;100726.39;1947813;74;31063;-70
2021/07/28 10:21:34;;;;;;;42.00;38.47;;;;;;;19.49;100.00;100727.23;1966056;71;31491;-72
2021/07/28 10:27:16;;;;;;;43.00;39.57;;;;;;;19.56;100.00;100723.25;1971948;72;31028;-73
2021/07/28 10:33:28;;;;;;;42.50;39.20;;;;;;;20.09;100.00;100711.57;1940590;73;31063;-75
2021/07/28 10:39:00;;;;;;;42.73;39.43;;;;;;;19.99;100.00;100715.09;1971953;72;30965;-72
2021/07/28 10:45:12;;;;;;;40.33;37.03;;;;;;;20.64;100.00;100705.30;1971935;73;31000;-72
2021/07/28 10:47:46;;;;;;;39.70;36.60;;;;;;;20.79;100.00;100713.05;1947465;74;24172;-72
2021/07/28 10:53:57;;;;;;;37.57;34.47;;;;;;;20.93;100.00;100691.44;1971930;73;30997;-71
2021/07/28 10:59:46;;;;;;;36.40;33.60;;;;;;;21.11;100.00;100674.42;1971928;72;31029;-74
2021/07/28 11:05:23;;;;;;;36.93;34.23;;;;;;;21.18;100.00;100665.59;1972194;72;31465;-76
2021/07/28 11:17:50;;;;;;;35.80;33.18;;;;;;;21.27;100.00;100649.88;1971831;73;30981;-74
2021/07/28 11:23:42;;;;;;;33.85;31.85;;;;;;;21.38;100.00;100661.48;1971819;73;30932;-74
2021/07/28 11:29:26;;;;;;;34.10;31.90;;;;;;;21.13;100.00;100654.58;1972019;73;31429;-75
2021/07/28 11:34:59;;;;;;;35.07;32.47;;;;;;;21.14;100.00;100649.72;1971871;73;31077;-72
2021/07/28 11:40:25;;;;;;;35.60;33.13;;;;;;;20.67;100.00;100658.01;1971908;73;30915;-73
2021/07/28 11:45:51;;;;;;;34.80;32.50;;;;;;;20.41;100.00;100667.72;1972118;72;31461;-75
2021/07/28 11:51:27;;;;;;;34.77;32.27;;;;;;;20.49;100.00;100655.27;1971881;73;31017;-75
2021/07/28 11:57:02;;;;;;;33.83;31.53;;;;;;;21.02;100.00;100646.93;1972104;73;31026;-72
2021/07/28 12:02:27;;;;;;;32.90;30.82;;;;;;;21.01;100.00;100638.25;1972119;73;30992;-73
2021/07/28 12:08:31;;;;;;;31.97;29.77;;;;;;;21.46;100.00;100627.41;2014069;71;32888;-78
2021/07/28 12:14:26;;;;;;;30.88;29.02;;;;;;;21.75;100.00;100636.01;2016088;71;30853;-77
2021/07/28 12:19:57;;;;;;;31.02;29.25;;;;;;;21.57;100.00;100624.25;1971854;73;30959;-79
2021/07/28 12:25:27;;;;;;;35.88;33.28;;;;;;;20.67;100.00;100636.25;1971770;73;30933;-77
2021/07/28 12:30:59;;;;;;;41.33;38.23;;;;;;;20.00;100.00;100650.48;1972061;73;31455;-79
2021/07/28 12:36:37;;;;;;;47.50;43.73;;;;;;;18.91;100.00;100669.17;1972097;73;31451;-76
2021/07/28 12:42:08;;;;;;;44.67;41.03;;;;;;;18.62;100.00;100682.73;1972056;72;31525;-79
2021/07/28 12:47:55;;;;;;;47.10;43.13;;;;;;;18.38;100.00;100674.12;2016188;71;30898;-79
2021/07/28 12:53:21;;;;;;;47.50;43.73;;;;;;;17.97;100.00;100746.56;1971885;73;31039;-77
2021/07/28 12:58:46;;;;;;;48.90;44.80;;;;;;;17.45;100.00;100771.14;1971992;73;31067;-77
2021/07/28 13:04:11;;;;;;;48.70;44.70;;;;;;;17.44;100.00;100765.27;1972066;73;30975;-74
2021/07/28 13:09:36;;;;;;;46.90;43.20;;;;;;;17.58;100.00;100763.13;1971857;73;30974;-73
2021/07/28 13:15:02;;;;;;;44.60;40.90;;;;;;;17.71;100.00;100769.13;1971812;73;30977;-76
2021/07/28 13:20:28;;;;;;;45.30;41.70;;;;;;;18.00;100.00;100780.43;1971918;73;30967;-72
2021/07/28 13:25:52;;;;;;;44.47;40.73;;;;;;;18.00;100.00;100772.00;1971893;73;31077;-77
2021/07/28 13:31:17;;;;;;;47.60;44.00;;;;;;;18.01;100.00;100779.86;1971873;73;31066;-77
2021/07/28 13:36:41;;;;;;;45.77;42.27;;;;;;;17.89;100.00;100776.89;1971855;73;30970;-76
2021/07/28 13:42:06;;;;;;;43.93;40.53;;;;;;;18.01;100.00;100759.57;1971891;72;30987;-74
2021/07/28 14:21:45;;;;;;;37.60;34.53;;;;;;;18.75;100.00;100735.09;1948985;72;24157;-70
2021/07/28 14:24:16;;;;;;;37.63;34.63;;;;;;;19.06;100.00;100736.91;1946520;74;24113;-74
2021/07/28 14:26:46;;;;;;;38.37;35.43;;;;;;;18.92;100.00;100728.50;1946404;74;26653;-71
2021/07/28 14:29:16;;;;;;;37.43;34.43;;;;;;;18.99;100.00;100725.39;1946402;74;24202;-72
2021/07/28 14:31:46;;;;;;;37.83;34.93;;;;;;;19.02;100.00;100724.69;1946426;74;24561;-72
2021/07/28 14:34:16;;;;;;;37.00;34.00;;;;;;;19.13;100.00;100729.30;1946379;74;24125;-71
2021/07/28 14:36:47;;;;;;;39.00;36.00;;;;;;;18.99;100.00;100721.75;1946612;74;26790;-72
2021/07/28 14:42:12;;;;;;;39.63;36.73;;;;;;;19.32;100.00;100721.17;1971859;73;31010;-76
2021/07/28 14:47:37;;;;;;;41.03;37.83;;;;;;;19.02;100.00;100728.08;1972046;73;31004;-75
2021/07/28 14:53:09;;;;;;;43.30;40.00;;;;;;;18.86;100.00;100742.55;1972098;72;31461;-71
2021/07/28 14:58:34;;;;;;;45.20;42.00;;;;;;;18.61;100.00;100731.74;1971876;73;31067;-76
2021/07/28 15:03:59;;;;;;;41.00;37.90;;;;;;;18.29;100.00;100726.20;1972108;73;31510;-74
2021/07/28 15:09:24;;;;;;;40.90;37.80;;;;;;;18.00;100.00;100714.38;1972155;73;31109;-76
2021/07/28 15:14:52;;;;;;;40.43;37.33;;;;;;;17.88;100.00;100713.45;1972017;72;31433;-79
2021/07/28 15:20:16;;;;;;;41.50;38.37;;;;;;;17.82;100.00;100709.16;1972061;73;31518;-77
2021/07/28 15:25:40;;;;;;;39.20;36.30;;;;;;;18.15;100.00;100713.79;1972046;73;31569;-78
2021/07/28 15:31:05;;;;;;;40.67;37.57;;;;;;;18.27;100.00;100711.64;1971877;73;31039;-79
2021/07/28 15:36:31;;;;;;;40.60;37.63;;;;;;;18.28;100.00;100702.63;1971833;72;31040;-78
2021/07/28 15:42:47;;;;;;;40.23;37.23;;;;;;;18.08;100.00;100700.86;1972110;73;31435;-77
2021/07/28 15:48:12;;;;;;;38.67;35.67;;;;;;;18.37;100.00;100704.23;1972121;72;31542;-78
2021/07/28 15:53:37;;;;;;;39.77;36.87;;;;;;;18.32;100.00;100706.41;1972073;73;30931;-78
2021/07/28 15:59:03;;;;;;;39.67;36.53;;;;;;;18.53;100.00;100700.25;1972237;73;31520;-78
2021/07/28 16:04:29;;;;;;;41.40;38.30;;;;;;;18.50;100.00;100687.67;1971857;73;30986;-79
2021/07/28 16:09:53;;;;;;;41.00;37.73;;;;;;;18.47;100.00;100676.30;1972122;73;31497;-78
2021/07/28 16:15:25;;;;;;;41.73;38.67;;;;;;;18.27;100.00;100700.39;1972114;73;31444;-79
2021/07/28 16:21:00;;;;;;;41.97;38.80;;;;;;;18.44;100.00;100710.73;1968336;71;31030;-75
2021/07/28 16:26:26;;;;;;;40.83;37.67;;;;;;;18.48;100.00;100702.65;1972113;73;31520;-75
2021/07/28 16:31:51;;;;;;;39.90;37.00;;;;;;;18.48;100.00;100689.20;1972160;73;30982;-76
2021/07/28 16:37:19;;;;;;;40.60;37.70;;;;;;;18.46;100.00;100680.27;1972092;72;33399;-75
2021/07/28 16:42:45;;;;;;;39.07;36.27;;;;;;;18.60;100.00;100692.11;1971856;73;31003;-73
2021/07/28 16:48:10;;;;;;;39.80;36.90;;;;;;;18.90;100.00;100689.45;1972073;73;31546;-75
2021/07/28 16:53:36;;;;;;;38.70;35.90;;;;;;;19.02;100.00;100680.23;1972101;73;33375;-74
2021/07/28 16:59:01;;;;;;;39.20;36.17;;;;;;;18.93;100.00;100670.45;1972169;73;33359;-77
2021/07/28 17:04:27;;;;;;;39.73;36.90;;;;;;;19.00;100.00;100661.44;1951716;72;30927;-78
2021/07/28 17:09:52;;;;;;;39.47;36.47;;;;;;;19.11;100.00;100671.11;1972091;73;31129;-76
2021/07/28 17:15:16;;;;;;;40.80;37.80;;;;;;;19.04;100.00;100654.77;1971957;73;31026;-73
2021/07/28 17:20:41;;;;;;;40.20;37.30;;;;;;;18.89;100.00;100661.06;1967834;73;31493;-74
2021/07/28 17:26:06;;;;;;;41.63;38.63;;;;;;;18.68;100.00;100643.96;1972211;72;33508;-74
2021/07/28 17:31:33;;;;;;;41.17;38.17;;;;;;;18.66;100.00;100647.11;1972103;73;31458;-75
2021/07/28 17:36:57;;;;;;;42.53;39.33;;;;;;;18.41;100.00;100656.55;1972079;73;31036;-74
2021/07/28 17:42:22;;;;;;;43.63;40.33;;;;;;;18.45;100.00;100682.25;1972150;73;30974;-75
2021/07/28 17:47:47;;;;;;;45.23;42.03;;;;;;;18.43;100.00;100683.77;1972028;73;30984;-73
2021/07/28 17:53:12;;;;;;;48.23;44.33;;;;;;;18.47;100.00;100693.99;1972066;73;31036;-78
2021/07/28 17:58:37;;;;;;;42.10;38.80;;;;;;;18.47;100.00;100695.98;1972265;72;31040;-73
2021/07/28 18:04:08;;;;;;;40.43;37.03;;;;;;;18.40;100.00;100690.08;1971861;73;31077;-81
2021/07/28 18:09:46;;;;;;;39.80;36.60;;;;;;;18.28;100.00;100695.02;1972165;73;30951;-74
2021/07/28 18:15:12;;;;;;;41.43;38.23;;;;;;;18.34;100.00;100683.00;1971993;73;30966;-72
2021/07/28 18:20:38;;;;;;;39.93;37.10;;;;;;;18.36;100.00;100684.30;1968084;73;31050;-75
2021/07/28 18:26:02;;;;;;;40.53;37.53;;;;;;;18.35;100.00;100693.92;1971771;72;31047;-76
2021/07/28 18:31:28;;;;;;;41.13;38.03;;;;;;;18.29;100.00;100714.95;1971691;73;31030;-73
2021/07/28 18:36:52;;;;;;;40.10;36.87;;;;;;;18.08;100.00;100711.27;1971970;73;30963;-73
2021/07/28 18:42:18;;;;;;;41.40;38.20;;;;;;;17.99;100.00;100705.70;1971704;73;30967;-72
2021/07/28 18:47:42;;;;;;;43.20;39.87;;;;;;;17.73;100.00;100707.80;1971743;73;30956;-72
2021/07/28 18:53:07;;;;;;;42.37;39.03;;;;;;;17.60;100.00;100708.26;1971659;73;31034;-72
2021/07/28 18:58:37;;;;;;;44.40;41.10;;;;;;;17.51;100.00;100724.28;1971797;73;31068;-72
2021/07/28 19:04:02;;;;;;;44.90;41.17;;;;;;;17.42;100.00;100726.28;1972068;73;31554;-78
2021/07/28 19:09:27;;;;;;;44.57;40.83;;;;;;;17.35;100.00;100727.95;1972015;73;30975;-71
2021/07/28 19:14:51;;;;;;;42.97;39.67;;;;;;;17.36;100.00;100739.44;1971769;73;33034;-72
2021/07/28 19:20:16;;;;;;;40.77;37.53;;;;;;;17.41;100.00;100747.12;1972123;73;31519;-81
2021/07/28 19:25:39;;;;;;;43.43;39.87;;;;;;;17.30;100.00;100749.44;1971804;73;30975;-71
2021/07/28 19:31:10;;;;;;;46.03;42.30;;;;;;;17.18;100.00;100752.67;1971704;73;31078;-79
2021/07/28 19:36:37;;;;;;;44.30;40.80;;;;;;;17.03;100.00;100756.00;1972028;73;31074;-72
2021/07/28 19:42:04;;;;;;;44.70;41.40;;;;;;;16.99;100.00;100773.22;1971954;73;31115;-76
2021/07/28 19:47:29;;;;;;;43.63;40.23;;;;;;;16.99;100.00;100774.05;1971985;72;31003;-70
2021/07/28 19:52:56;;;;;;;45.53;42.13;;;;;;;16.91;100.00;100783.87;1972183;73;31542;-74
2021/07/28 19:58:42;;;;;;;45.63;42.23;;;;;;;16.63;100.00;100802.98;2007811;71;34666;-71
2021/07/28 20:04:08;;;;;;;43.83;40.33;;;;;;;16.72;100.00;100809.45;1972060;73;31123;-74
2021/07/28 20:09:34;;;;;;;45.20;41.80;;;;;;;16.69;100.00;100814.28;1972181;73;33401;-75
2021/07/28 20:15:01;;;;;;;44.30;40.80;;;;;;;16.71;100.00;100821.23;1972025;73;30980;-75
2021/07/28 20:20:26;;;;;;;44.27;40.77;;;;;;;16.76;100.00;100823.06;1971320;71;31069;-76
2021/07/28 20:25:59;;;;;;;43.23;39.83;;;;;;;16.74;100.00;100797.30;1972116;73;33001;-73
2021/07/28 20:31:27;;;;;;;42.33;39.13;;;;;;;16.67;100.00;100806.22;1972157;73;31467;-73
2021/07/28 20:36:53;;;;;;;40.43;37.27;;;;;;;16.62;100.00;100806.94;1972006;73;31062;-73
2021/07/28 20:42:18;;;;;;;42.47;39.37;;;;;;;16.33;100.00;100813.94;1971942;73;31206;-74
2021/07/28 20:47:43;;;;;;;41.47;38.27;;;;;;;16.15;100.00;100828.19;1972211;73;32988;-72
2021/07/28 20:53:08;;;;;;;42.83;39.63;;;;;;;16.03;100.00;100830.20;1972194;73;31457;-73
2021/07/28 20:58:32;;;;;;;43.10;39.60;;;;;;;15.84;100.00;100829.59;1971962;73;32921;-73
2021/07/28 21:03:58;;;;;;;42.53;39.27;;;;;;;15.76;100.00;100830.37;1972156;73;33542;-74
2021/07/28 21:09:23;;;;;;;41.00;37.80;;;;;;;15.75;100.00;100833.75;1971975;73;32985;-75
2021/07/28 21:14:47;;;;;;;41.83;38.73;;;;;;;15.60;100.00;100838.92;1972046;73;32911;-74
2021/07/28 21:20:14;;;;;;;42.40;39.37;;;;;;;15.72;100.00;100844.20;1971852;73;32980;-75
2021/07/28 21:25:39;;;;;;;40.80;37.70;;;;;;;15.57;100.00;100853.58;1971870;73;33009;-76
2021/07/28 21:31:09;;;;;;;39.87;36.97;;;;;;;15.66;100.00;100850.27;1972131;72;33381;-74
2021/07/28 21:36:37;;;;;;;41.23;38.13;;;;;;;15.60;100.00;100851.52;1972164;73;32977;-72
2021/07/28 21:42:03;;;;;;;40.17;37.23;;;;;;;15.52;100.00;100847.53;1972246;73;33406;-74
2021/07/28 21:47:32;;;;;;;41.37;38.17;;;;;;;15.43;100.00;100847.43;1972199;73;32900;-73
2021/07/28 21:53:03;;;;;;;41.83;38.63;;;;;;;15.60;100.00;100850.13;1971905;73;33043;-73
2021/07/28 21:55:39;;;;;;;42.93;39.77;;;;;;;15.46;100.00;100852.95;1934609;74;26232;-74
2021/07/28 22:01:09;;;;;;;40.97;37.93;;;;;;;15.33;100.00;100856.06;1972123;73;32981;-76
2021/07/28 22:06:36;;;;;;;41.33;38.53;;;;;;;15.50;100.00;100845.60;1972219;73;33435;-77
2021/07/28 22:12:02;;;;;;;42.03;38.93;;;;;;;15.55;100.00;100846.05;1971959;73;32904;-76
2021/07/28 22:17:27;;;;;;;42.97;39.87;;;;;;;15.45;100.00;100848.48;1971855;73;32927;-74
2021/07/28 22:22:52;;;;;;;42.43;39.23;;;;;;;15.34;100.00;100848.50;1971872;73;32966;-74
2021/07/28 22:28:16;;;;;;;40.60;37.50;;;;;;;15.30;100.00;100841.88;1972100;73;33403;-74
2021/07/28 22:33:46;;;;;;;41.73;38.60;;;;;;;15.46;100.00;100832.79;1971994;73;33381;-75
2021/07/28 22:39:30;;;;;;;43.90;40.77;;;;;;;15.46;100.00;100837.55;2014989;71;32955;-74
2021/07/28 22:44:54;;;;;;;39.63;36.63;;;;;;;15.55;100.00;100839.05;1972109;73;33452;-74
2021/07/28 22:56:31;;;;;;;41.87;38.63;;;;;;;15.44;100.00;100850.48;1971855;73;32897;-74
2021/07/28 23:07:37;;;;;;;44.83;41.37;;;;;;;15.41;100.00;100857.27;1971820;73;32957;-75
2021/07/28 23:13:08;;;;;;;42.93;39.70;;;;;;;15.38;100.00;100854.55;1972093;73;33838;-74
2021/07/28 23:18:34;;;;;;;41.43;38.30;;;;;;;15.36;100.00;100860.22;1971832;72;32897;-75
2021/07/28 23:24:00;;;;;;;42.63;39.43;;;;;;;15.39;100.00;100866.58;1972021;73;33693;-76
2021/07/28 23:29:26;;;;;;;42.60;39.37;;;;;;;15.28;100.00;100861.78;1972036;73;32898;-74
2021/07/28 23:34:50;;;;;;;43.73;40.63;;;;;;;15.22;100.00;100858.03;1971897;73;32912;-75
2021/07/28 23:40:15;;;;;;;42.20;39.10;;;;;;;15.25;100.00;100863.81;1972029;71;33548;-75
2021/07/28 23:45:42;;;;;;;43.03;39.70;;;;;;;15.14;100.00;100865.22;1971888;73;33525;-73
2021/07/28 23:51:09;;;;;;;43.63;40.43;;;;;;;15.10;100.00;100865.59;1972095;73;33570;-75
2021/07/28 23:56:34;;;;;;;44.53;41.37;;;;;;;15.05;100.00;100864.30;1971990;73;32902;-74
